createdAt,value
2022-12-11T00:01:52.973Z,1.3
2022-12-11T00:11:52.944Z,1.3
2022-12-11T00:21:52.932Z,1.2
2022-12-11T00:31:53.025Z,1.2
2022-12-11T00:41:52.925Z,1.2
2022-12-11T00:51:52.935Z,1.1
2022-12-11T01:01:52.895Z,1
2022-12-11T01:11:52.887Z,1
2022-12-11T01:21:52.883Z,0.8
2022-12-11T01:31:52.911Z,0.7
2022-12-11T01:41:52.865Z,0.6
2022-12-11T01:51:52.903Z,0.4
2022-12-11T02:01:52.856Z,0.4
2022-12-11T02:11:52.914Z,0.3
2022-12-11T02:21:52.847Z,0.3
2022-12-11T02:31:52.892Z,0.3
2022-12-11T02:41:52.867Z,0.4
2022-12-11T02:51:52.872Z,0.3
2022-12-11T03:01:52.825Z,0.2
2022-12-11T03:11:52.849Z,0
2022-12-11T03:21:52.802Z,-0.1
2022-12-11T03:31:52.793Z,-0.3
2022-12-11T03:41:52.822Z,-0.4
2022-12-11T03:51:52.824Z,-0.5
2022-12-11T04:01:52.848Z,-0.6
2022-12-11T04:11:52.802Z,-0.8
2022-12-11T04:21:52.769Z,-0.9
2022-12-11T04:31:52.782Z,-1.1
2022-12-11T04:41:52.775Z,-1.1
2022-12-11T04:51:52.780Z,-1.3
2022-12-11T05:01:52.850Z,-1.5
2022-12-11T05:11:52.779Z,-1.7
2022-12-11T05:21:52.720Z,-1.8
2022-12-11T05:31:52.707Z,-1.8
2022-12-11T05:41:52.757Z,-1.7
2022-12-11T05:51:52.744Z,-1.5
2022-12-11T06:01:52.793Z,-1.5
2022-12-11T06:11:52.727Z,-1.5
2022-12-11T06:21:52.687Z,-1.4
2022-12-11T06:31:52.771Z,-1.3
2022-12-11T06:41:52.724Z,-1.1
2022-12-11T06:51:52.667Z,-1
2022-12-11T07:01:52.795Z,-0.9
2022-12-11T07:11:52.689Z,-0.8
2022-12-11T07:21:52.661Z,-0.8
2022-12-11T07:31:52.744Z,-0.5
2022-12-11T07:41:52.663Z,-0.5
2022-12-11T07:51:52.631Z,-0.6
2022-12-11T08:01:52.673Z,-0.6
2022-12-11T08:11:52.649Z,-0.5
2022-12-11T08:21:52.626Z,-0.5
2022-12-11T08:31:52.618Z,-0.3
2022-12-11T08:41:52.644Z,-0.3
2022-12-11T08:51:52.599Z,-0.2
2022-12-11T09:01:52.802Z,-0.1
2022-12-11T09:11:52.630Z,0
2022-12-11T09:21:52.576Z,0
2022-12-11T09:31:52.562Z,0.1
2022-12-11T09:41:52.657Z,0.2
2022-12-11T09:51:52.561Z,0.3
2022-12-11T10:01:52.601Z,0.5
2022-12-11T10:11:56.375Z,1.2
2022-12-11T10:21:52.544Z,1.5
2022-12-11T10:31:52.518Z,1.8
2022-12-11T10:41:52.558Z,1.9
2022-12-11T10:51:52.530Z,2
2022-12-11T11:11:52.491Z,2.7
2022-12-11T11:21:52.478Z,2.9
2022-12-11T11:31:52.476Z,3.2
2022-12-11T11:41:52.444Z,3.6
2022-12-11T11:51:52.513Z,4.1
2022-12-11T12:01:52.423Z,4.4
2022-12-11T12:11:52.432Z,4.6
2022-12-11T12:21:52.397Z,5.2
2022-12-11T12:31:52.432Z,6
2022-12-11T12:41:52.375Z,6.6
2022-12-11T12:51:52.397Z,6.7
2022-12-11T13:01:52.508Z,7.1
2022-12-11T13:11:52.344Z,7.6
2022-12-11T13:21:52.359Z,7.3
2022-12-11T13:31:52.357Z,6.8
2022-12-11T13:41:52.295Z,6
2022-12-11T13:51:52.315Z,5.3
2022-12-11T14:01:52.343Z,4.7
2022-12-11T14:11:56.769Z,4.2
2022-12-11T14:21:52.283Z,4.1
2022-12-11T14:31:52.306Z,3.9
2022-12-11T14:41:52.235Z,3.9
2022-12-11T14:51:52.247Z,3.8
2022-12-11T15:01:52.262Z,3.8
2022-12-11T15:11:52.203Z,3.5
2022-12-11T15:21:52.217Z,3
2022-12-11T15:31:52.172Z,2.4
2022-12-11T15:41:52.214Z,2
2022-12-11T15:51:52.186Z,1.6
2022-12-11T16:01:52.197Z,1.4
2022-12-11T16:11:52.171Z,1.2
2022-12-11T16:21:52.167Z,0.8
2022-12-11T16:31:52.137Z,0.5
2022-12-11T16:41:52.160Z,0.1
2022-12-11T16:51:52.158Z,-0.1
2022-12-11T17:01:52.201Z,-0.3
2022-12-11T17:11:52.142Z,-0.4
2022-12-11T17:21:52.121Z,-0.4
2022-12-11T17:31:52.074Z,-0.5
2022-12-11T17:41:52.106Z,-0.4
2022-12-11T17:51:52.105Z,-0.4
2022-12-11T18:01:52.156Z,-0.4
2022-12-11T18:11:52.102Z,-0.3
2022-12-11T18:21:52.082Z,-0.3
2022-12-11T18:31:52.100Z,-0.3
2022-12-11T18:42:23.892Z,-0.1
2022-12-11T18:51:52.076Z,-0.1
2022-12-11T19:01:52.043Z,0
2022-12-11T19:11:52.047Z,0
2022-12-11T19:21:52.033Z,0.1
2022-12-11T19:31:52.143Z,0.2
2022-12-11T19:41:52.013Z,0.2
2022-12-11T19:51:52.031Z,0.2
2022-12-11T20:01:52.091Z,0.2
2022-12-11T20:11:51.990Z,0.1
2022-12-11T20:21:51.968Z,0.1
2022-12-11T20:31:51.989Z,0.1
2022-12-11T20:41:51.982Z,-0.1
2022-12-11T20:51:51.937Z,-0.1
2022-12-11T21:01:52.002Z,-0.3
2022-12-11T21:11:51.958Z,-0.2
2022-12-11T21:21:51.933Z,-0.2
2022-12-11T21:31:52.014Z,-0.2
2022-12-11T21:41:51.933Z,-0.4
2022-12-11T21:51:51.893Z,-0.7
2022-12-11T22:01:51.965Z,-0.9
2022-12-11T22:11:57.913Z,-1.1
2022-12-11T22:21:51.877Z,-1.4
2022-12-11T22:31:51.899Z,-1.6
2022-12-11T22:41:51.906Z,-1.9
2022-12-11T22:51:51.877Z,-2
2022-12-11T23:01:51.852Z,-1.9
2022-12-11T23:11:51.874Z,-1.9
2022-12-11T23:21:51.858Z,-1.8
2022-12-11T23:31:51.888Z,-1.9
2022-12-11T23:41:51.856Z,-2
2022-12-11T23:51:51.841Z,-2.1
